Time;durP1;ratioP1;P1;durP2;ratioP2;P2;SDS_P1;SDS_P2;PMS_P1;PMS_P2;Temp;Humidity;BMP_temperature;BMP_pressure;BME280_temperature;BME280_humidity;BME280_pressure;Samples;Min_cycle;Max_cycle;Signal;HPM_P1;HPM_P2
2022/01/19 00:00:38;;;;;;;;;21.00;20.75;;;;;;;;5073632;28;45435;-70
2022/01/19 00:03:04;;;;;;;;;25.25;22.75;;;;;;;;5074777;28;45271;-71
2022/01/19 00:05:29;;;;;;;;;21.00;17.50;;;;;;;;5075013;28;45300;-71
2022/01/19 00:07:54;;;;;;;;;20.50;19.00;;;;;;;;5073017;28;45521;-70
2022/01/19 00:10:26;;;;;;;;;20.25;19.00;;;;;;;;5072373;28;45549;-71
2022/01/19 00:12:54;;;;;;;;;18.25;14.75;;;;;;;;5073748;27;45562;-71
2022/01/19 00:15:19;;;;;;;;;14.50;13.00;;;;;;;;5087806;27;45700;-71
2022/01/19 00:17:45;;;;;;;;;19.25;16.50;;;;;;;;5076269;27;45363;-71
2022/01/19 00:20:10;;;;;;;;;17.75;16.75;;;;;;;;5073288;28;45422;-71
2022/01/19 00:22:37;;;;;;;;;20.75;17.75;;;;;;;;5072708;28;45500;-71
2022/01/19 00:25:02;;;;;;;;;16.00;14.25;;;;;;;;5075028;28;48591;-70
2022/01/19 00:27:27;;;;;;;;;19.00;16.50;;;;;;;;5076883;27;45283;-71
2022/01/19 00:29:53;;;;;;;;;19.50;15.00;;;;;;;;5081669;27;45518;-71
2022/01/19 00:32:19;;;;;;;;;18.50;15.75;;;;;;;;5076806;27;45497;-71
2022/01/19 00:34:44;;;;;;;;;18.00;15.25;;;;;;;;5076808;28;45466;-71
2022/01/19 00:37:09;;;;;;;;;16.75;16.00;;;;;;;;5075156;28;45472;-71
2022/01/19 00:39:34;;;;;;;;;18.25;17.25;;;;;;;;5076860;28;45477;-70
2022/01/19 00:42:00;;;;;;;;;17.25;14.25;;;;;;;;5078454;28;45339;-71
2022/01/19 00:44:25;;;;;;;;;15.25;13.00;;;;;;;;5076163;28;45351;-71
2022/01/19 00:46:50;;;;;;;;;18.25;16.00;;;;;;;;5076136;28;45415;-70
2022/01/19 00:49:16;;;;;;;;;19.25;17.25;;;;;;;;5075346;27;45217;-71
2022/01/19 00:51:41;;;;;;;;;16.25;14.75;;;;;;;;5076282;27;45327;-71
2022/01/19 00:54:06;;;;;;;;;14.75;13.50;;;;;;;;5077969;27;45369;-71
2022/01/19 00:56:33;;;;;;;;;15.25;14.00;;;;;;;;5077760;28;46119;-71
2022/01/19 00:58:59;;;;;;;;;16.25;15.00;;;;;;;;5076131;28;45414;-71
2022/01/19 01:01:24;;;;;;;;;15.75;14.00;;;;;;;;5077780;28;45437;-70
2022/01/19 01:03:49;;;;;;;;;14.75;14.75;;;;;;;;5077971;28;45526;-71
2022/01/19 01:06:15;;;;;;;;;17.50;15.25;;;;;;;;5077592;27;46134;-71
2022/01/19 01:08:40;;;;;;;;;15.75;14.00;;;;;;;;5084229;27;45414;-71
2022/01/19 01:11:05;;;;;;;;;17.75;15.50;;;;;;;;5075974;27;45518;-71
2022/01/19 01:15:26;;;;;;;;;15.75;13.00;;;;;;;;5078038;27;45446;-71
2022/01/19 01:16:18;;;;;;;;;15.25;13.25;;;;;;;;5083390;27;45683;-69
2022/01/19 01:18:44;;;;;;;;;16.00;14.75;;;;;;;;5074571;28;45317;-71
2022/01/19 01:21:09;;;;;;;;;15.25;13.75;;;;;;;;5076969;28;45387;-70
2022/01/19 01:23:35;;;;;;;;;13.75;12.75;;;;;;;;5088503;27;45283;-71
2022/01/19 01:26:01;;;;;;;;;17.00;14.50;;;;;;;;5078909;27;46200;-70
2022/01/19 01:28:26;;;;;;;;;13.00;11.75;;;;;;;;5075775;28;45307;-70
2022/01/19 01:30:51;;;;;;;;;18.25;13.75;;;;;;;;5076164;28;45444;-71
2022/01/19 01:33:16;;;;;;;;;16.25;13.50;;;;;;;;5075768;27;45518;-71
2022/01/19 01:35:42;;;;;;;;;15.25;13.50;;;;;;;;5077473;27;46111;-71
2022/01/19 01:38:07;;;;;;;;;16.75;14.00;;;;;;;;5073845;28;45503;-71
2022/01/19 01:40:34;;;;;;;;;14.25;12.75;;;;;;;;5074315;28;45482;-71
2022/01/19 01:43:00;;;;;;;;;12.75;12.75;;;;;;;;5075816;28;45453;-71
2022/01/19 01:45:29;;;;;;;;;15.50;13.25;;;;;;;;5077382;27;46106;-71
2022/01/19 01:48:09;;;;;;;;;16.25;16.25;;;;;;;;5075657;27;45464;-71
2022/01/19 01:53:28;;;;;;;;;14.00;13.50;;;;;;;;5076974;27;45358;-71
2022/01/19 01:56:16;;;;;;;;;12.50;12.25;;;;;;;;5077151;28;46398;-71
2022/01/19 01:58:42;;;;;;;;;13.25;12.50;;;;;;;;5079015;27;45757;-71
2022/01/19 02:01:08;;;;;;;;;13.50;12.75;;;;;;;;5077253;28;45411;-70
2022/01/19 02:03:38;;;;;;;;;15.00;14.75;;;;;;;;5076742;27;45572;-71
2022/01/19 02:08:37;;;;;;;;;12.50;11.75;;;;;;;;5077246;27;45734;-70
2022/01/19 02:21:57;;;;;;;;;13.75;13.75;;;;;;;;5068566;28;45376;-71
2022/01/19 02:24:23;;;;;;;;;16.25;14.75;;;;;;;;5075335;28;45459;-69
2022/01/19 02:29:47;;;;;;;;;16.50;14.25;;;;;;;;5077744;27;45600;-70
2022/01/19 02:40:17;;;;;;;;;13.00;12.75;;;;;;;;5074693;27;45390;-71
2022/01/19 02:42:55;;;;;;;;;15.50;14.50;;;;;;;;5074918;28;45473;-70
2022/01/19 02:50:33;;;;;;;;;13.50;12.50;;;;;;;;5079160;27;45283;-70
2022/01/19 02:52:58;;;;;;;;;10.00;9.50;;;;;;;;5076352;27;45640;-71
2022/01/19 02:55:23;;;;;;;;;17.50;16.75;;;;;;;;5074335;27;45530;-70
2022/01/19 02:57:49;;;;;;;;;11.75;11.75;;;;;;;;5086174;27;46249;-71
2022/01/19 03:08:42;;;;;;;;;15.75;14.50;;;;;;;;5074063;28;45715;-71
2022/01/19 03:11:08;;;;;;;;;14.50;13.50;;;;;;;;5072389;28;45557;-71
2022/01/19 03:13:33;;;;;;;;;14.00;12.50;;;;;;;;5074284;28;45597;-71
2022/01/19 03:15:58;;;;;;;;;14.50;13.00;;;;;;;;5073783;28;45598;-71
2022/01/19 03:18:24;;;;;;;;;13.25;13.25;;;;;;;;5073231;28;48905;-70
2022/01/19 03:20:49;;;;;;;;;13.50;12.25;;;;;;;;5075930;28;45510;-70
2022/01/19 03:23:20;;;;;;;;;12.25;11.75;;;;;;;;5083202;27;45581;-71
2022/01/19 03:25:46;;;;;;;;;14.00;13.00;;;;;;;;5074187;27;45539;-71
2022/01/19 03:28:11;;;;;;;;;13.75;12.75;;;;;;;;5047718;28;46014;-70
2022/01/19 03:30:36;;;;;;;;;12.00;10.75;;;;;;;;5075329;28;45397;-71
2022/01/19 03:33:02;;;;;;;;;14.50;14.00;;;;;;;;5076176;28;45333;-70
2022/01/19 03:35:27;;;;;;;;;14.50;14.00;;;;;;;;5075876;28;45414;-71
2022/01/19 03:37:53;;;;;;;;;13.00;13.00;;;;;;;;5077892;27;45238;-71
2022/01/19 03:40:18;;;;;;;;;15.00;12.00;;;;;;;;5075021;28;45538;-71
2022/01/19 03:42:43;;;;;;;;;15.25;13.00;;;;;;;;5072345;27;45271;-71
2022/01/19 03:45:09;;;;;;;;;15.25;13.75;;;;;;;;5074795;28;45323;-71
2022/01/19 03:47:42;;;;;;;;;15.00;13.00;;;;;;;;5075287;28;45573;-71
2022/01/19 03:50:07;;;;;;;;;13.00;12.50;;;;;;;;5074114;28;45624;-71
2022/01/19 03:52:33;;;;;;;;;16.75;12.50;;;;;;;;5074810;28;45324;-70
2022/01/19 03:54:58;;;;;;;;;13.00;12.00;;;;;;;;5074047;28;45538;-71
2022/01/19 03:57:23;;;;;;;;;12.75;11.00;;;;;;;;5073324;28;46013;-70
2022/01/19 03:59:48;;;;;;;;;13.25;11.25;;;;;;;;5074650;28;45272;-71
2022/01/19 04:02:14;;;;;;;;;16.75;15.00;;;;;;;;5073362;28;45614;-71
2022/01/19 04:07:10;;;;;;;;;14.75;13.50;;;;;;;;5084712;27;46157;-71
2022/01/19 04:09:37;;;;;;;;;12.75;11.00;;;;;;;;5073950;28;45347;-71
2022/01/19 04:12:02;;;;;;;;;12.25;12.25;;;;;;;;5075059;28;45220;-71
2022/01/19 04:14:28;;;;;;;;;13.25;11.50;;;;;;;;5073799;27;45443;-70
2022/01/19 04:17:03;;;;;;;;;16.75;13.25;;;;;;;;5072678;28;45952;-71
2022/01/19 04:19:48;;;;;;;;;14.75;13.25;;;;;;;;5075547;27;45608;-71
2022/01/19 04:22:15;;;;;;;;;12.25;11.00;;;;;;;;5066262;27;45614;-70
2022/01/19 04:24:41;;;;;;;;;16.00;13.25;;;;;;;;5073661;28;45580;-71
2022/01/19 04:30:06;;;;;;;;;14.75;13.00;;;;;;;;5073491;28;45431;-71
2022/01/19 04:34:57;;;;;;;;;11.25;11.00;;;;;;;;5072434;28;45313;-71
2022/01/19 04:37:57;;;;;;;;;12.00;11.00;;;;;;;;5072989;28;47520;-71
2022/01/19 05:07:24;;;;;;;;;14.00;13.00;;;;;;;;4915178;28;45374;-71
2022/01/19 05:15:04;;;;;;;;;15.50;13.00;;;;;;;;4918014;28;45504;-71
2022/01/19 05:17:30;;;;;;;;;12.75;12.75;;;;;;;;4917336;28;45609;-71
2022/01/19 05:19:58;;;;;;;;;17.25;14.50;;;;;;;;4917396;28;45658;-71
2022/01/19 05:22:23;;;;;;;;;14.25;12.00;;;;;;;;4945598;28;45370;-71
2022/01/19 05:24:48;;;;;;;;;13.50;12.00;;;;;;;;4986660;28;45514;-70
2022/01/19 05:27:13;;;;;;;;;13.00;11.00;;;;;;;;4983088;28;45393;-71
2022/01/19 05:29:39;;;;;;;;;15.00;13.00;;;;;;;;4991931;28;48089;-71
2022/01/19 05:32:05;;;;;;;;;14.25;12.75;;;;;;;;5007088;28;45516;-71
2022/01/19 05:34:30;;;;;;;;;17.00;12.25;;;;;;;;5050188;27;45300;-70
2022/01/19 05:36:55;;;;;;;;;12.50;12.00;;;;;;;;5077938;27;45449;-70
2022/01/19 05:39:23;;;;;;;;;14.75;12.75;;;;;;;;5056987;28;47165;-70
2022/01/19 05:41:49;;;;;;;;;15.25;13.50;;;;;;;;5087820;27;45436;-71
2022/01/19 05:44:14;;;;;;;;;14.50;12.00;;;;;;;;5080507;27;45732;-70
2022/01/19 05:46:39;;;;;;;;;11.75;11.50;;;;;;;;5079275;27;45343;-71
2022/01/19 05:49:04;;;;;;;;;14.75;12.25;;;;;;;;5078378;27;46187;-71
2022/01/19 05:51:30;;;;;;;;;11.75;11.75;;;;;;;;5060242;27;45758;-70
2022/01/19 05:53:56;;;;;;;;;11.50;11.50;;;;;;;;5085523;27;45403;-71
2022/01/19 05:56:21;;;;;;;;;12.75;11.75;;;;;;;;5075482;27;45675;-70
2022/01/19 05:58:46;;;;;;;;;11.00;11.00;;;;;;;;5073943;28;46310;-71
2022/01/19 06:01:11;;;;;;;;;14.25;11.25;;;;;;;;5080230;27;46182;-70
2022/01/19 06:03:36;;;;;;;;;9.75;9.25;;;;;;;;5075591;27;45580;-71
2022/01/19 06:06:02;;;;;;;;;9.75;9.50;;;;;;;;5058700;28;45398;-71
2022/01/19 06:10:55;;;;;;;;;14.25;11.75;;;;;;;;5075361;28;45592;-70
2022/01/19 06:13:21;;;;;;;;;13.50;12.00;;;;;;;;5075317;27;45385;-70
2022/01/19 06:15:47;;;;;;;;;13.75;13.00;;;;;;;;5077485;27;45463;-71
2022/01/19 06:18:12;;;;;;;;;12.75;12.75;;;;;;;;5076959;27;45462;-71
2022/01/19 06:20:38;;;;;;;;;13.50;12.25;;;;;;;;5080412;27;45680;-70
2022/01/19 06:23:04;;;;;;;;;10.25;10.25;;;;;;;;5078688;27;45476;-70
2022/01/19 06:25:29;;;;;;;;;11.25;11.25;;;;;;;;5075267;27;45497;-70
2022/01/19 06:27:54;;;;;;;;;11.25;9.75;;;;;;;;5073373;28;45990;-70
2022/01/19 06:30:20;;;;;;;;;12.50;10.75;;;;;;;;5074035;28;45288;-71
2022/01/19 06:32:45;;;;;;;;;15.75;12.00;;;;;;;;5075999;28;45411;-70
2022/01/19 06:35:11;;;;;;;;;12.75;11.00;;;;;;;;5077290;27;45450;-70
2022/01/19 06:37:36;;;;;;;;;12.25;11.00;;;;;;;;5077474;27;46771;-70
2022/01/19 06:40:03;;;;;;;;;14.00;12.00;;;;;;;;5078085;27;45406;-71
2022/01/19 06:42:29;;;;;;;;;11.75;11.50;;;;;;;;5077787;27;45415;-71
2022/01/19 06:44:54;;;;;;;;;14.25;12.50;;;;;;;;5076847;28;45462;-70
2022/01/19 06:47:19;;;;;;;;;15.75;12.50;;;;;;;;5074188;28;46224;-70
2022/01/19 06:49:45;;;;;;;;;12.75;11.50;;;;;;;;5073478;27;45476;-70
2022/01/19 06:52:10;;;;;;;;;14.25;11.50;;;;;;;;5074316;28;45384;-70
2022/01/19 06:54:35;;;;;;;;;11.75;11.75;;;;;;;;5075632;27;45379;-71
2022/01/19 06:57:00;;;;;;;;;12.00;11.50;;;;;;;;5076177;28;46588;-70
2022/01/19 06:59:26;;;;;;;;;14.75;13.00;;;;;;;;5075037;28;45280;-70
2022/01/19 07:01:51;;;;;;;;;11.25;9.75;;;;;;;;5073123;28;45718;-71
2022/01/19 07:04:17;;;;;;;;;13.00;13.00;;;;;;;;5076594;27;45596;-70
2022/01/19 07:06:42;;;;;;;;;12.00;11.00;;;;;;;;5075097;28;46665;-70
2022/01/19 07:09:08;;;;;;;;;13.00;13.00;;;;;;;;5057884;27;46088;-70
2022/01/19 07:11:35;;;;;;;;;13.00;12.75;;;;;;;;5075935;28;45390;-70
2022/01/19 07:14:00;;;;;;;;;15.25;11.00;;;;;;;;5074208;28;45419;-70
2022/01/19 07:16:26;;;;;;;;;13.00;12.25;;;;;;;;5073586;27;46301;-70
2022/01/19 07:18:51;;;;;;;;;12.25;10.75;;;;;;;;5074018;27;45381;-71
2022/01/19 07:21:16;;;;;;;;;11.75;11.00;;;;;;;;5076355;27;45339;-71
2022/01/19 07:23:41;;;;;;;;;14.00;12.00;;;;;;;;5078413;27;45429;-73
2022/01/19 07:26:07;;;;;;;;;11.25;11.00;;;;;;;;5076816;27;45459;-71
2022/01/19 07:28:32;;;;;;;;;14.25;12.50;;;;;;;;5079187;27;45493;-70
2022/01/19 07:30:57;;;;;;;;;11.25;11.25;;;;;;;;5077788;27;45511;-69
2022/01/19 07:33:22;;;;;;;;;10.50;10.50;;;;;;;;5072460;27;45463;-71
2022/01/19 07:35:51;;;;;;;;;17.50;14.75;;;;;;;;5075181;27;46092;-71
2022/01/19 07:38:16;;;;;;;;;9.50;9.50;;;;;;;;5074153;28;45304;-71
2022/01/19 07:40:42;;;;;;;;;15.25;12.00;;;;;;;;5071966;28;45188;-71
2022/01/19 07:43:07;;;;;;;;;10.25;8.25;;;;;;;;5074555;27;45320;-70
2022/01/19 07:45:32;;;;;;;;;11.25;10.50;;;;;;;;5072286;28;47036;-71
2022/01/19 07:47:57;;;;;;;;;13.00;10.50;;;;;;;;5067326;27;45214;-69
2022/01/19 07:50:23;;;;;;;;;14.25;10.75;;;;;;;;5072314;27;45369;-69
2022/01/19 07:52:48;;;;;;;;;10.00;10.00;;;;;;;;5073986;27;45347;-69
2022/01/19 07:55:13;;;;;;;;;18.75;10.75;;;;;;;;5073913;28;46420;-69
2022/01/19 07:57:41;;;;;;;;;10.50;10.00;;;;;;;;5073031;28;45458;-69
2022/01/19 08:00:07;;;;;;;;;12.25;11.00;;;;;;;;5074580;27;45577;-68
2022/01/19 08:02:33;;;;;;;;;13.25;11.50;;;;;;;;5071557;28;45475;-68
2022/01/19 08:04:59;;;;;;;;;14.75;12.75;;;;;;;;5075331;27;47251;-69
2022/01/19 08:07:24;;;;;;;;;13.00;11.25;;;;;;;;5079778;27;45418;-69
2022/01/19 08:09:49;;;;;;;;;13.00;12.00;;;;;;;;5071648;28;45528;-69
2022/01/19 08:12:14;;;;;;;;;14.00;10.75;;;;;;;;5072883;27;45429;-69
2022/01/19 08:14:40;;;;;;;;;12.00;11.00;;;;;;;;5057217;28;47503;-69
2022/01/19 08:17:05;;;;;;;;;10.50;8.50;;;;;;;;5074212;28;45386;-69
2022/01/19 08:19:30;;;;;;;;;11.25;11.25;;;;;;;;5074593;27;45319;-69
2022/01/19 08:21:55;;;;;;;;;12.00;12.00;;;;;;;;5079441;27;45421;-69
2022/01/19 08:24:20;;;;;;;;;12.00;11.50;;;;;;;;5073225;28;45494;-69
2022/01/19 08:26:46;;;;;;;;;12.75;10.50;;;;;;;;5075423;28;45467;-69
2022/01/19 08:29:11;;;;;;;;;10.75;10.75;;;;;;;;5073011;28;45349;-69
2022/01/19 08:31:36;;;;;;;;;10.25;8.25;;;;;;;;5071279;28;45344;-69
2022/01/19 08:34:02;;;;;;;;;12.50;11.00;;;;;;;;5070494;28;46958;-69
2022/01/19 08:36:28;;;;;;;;;11.00;10.75;;;;;;;;5073728;27;45396;-69
2022/01/19 08:38:53;;;;;;;;;10.00;10.00;;;;;;;;5074995;28;45374;-69
2022/01/19 08:41:18;;;;;;;;;9.25;9.25;;;;;;;;5071596;28;45581;-69
2022/01/19 08:43:43;;;;;;;;;14.00;12.00;;;;;;;;5072798;28;46261;-69
2022/01/19 08:46:09;;;;;;;;;12.50;11.50;;;;;;;;5056113;28;45535;-69
2022/01/19 08:48:34;;;;;;;;;11.75;10.75;;;;;;;;5075242;27;45335;-70
2022/01/19 08:50:59;;;;;;;;;12.25;12.25;;;;;;;;5081786;27;45392;-69
2022/01/19 08:53:24;;;;;;;;;14.00;12.00;;;;;;;;5075525;28;45485;-69
2022/01/19 08:55:50;;;;;;;;;14.00;9.75;;;;;;;;5078865;27;45439;-69
2022/01/19 08:58:15;;;;;;;;;13.50;12.25;;;;;;;;5077969;28;45367;-69
2022/01/19 09:00:42;;;;;;;;;11.50;11.00;;;;;;;;5078155;28;45497;-68
2022/01/19 09:03:07;;;;;;;;;11.75;11.50;;;;;;;;5086956;27;45830;-69
2022/01/19 09:05:32;;;;;;;;;9.00;8.00;;;;;;;;5077936;28;45939;-69
2022/01/19 09:07:58;;;;;;;;;12.25;11.00;;;;;;;;5076140;27;45480;-69
2022/01/19 09:10:24;;;;;;;;;12.25;10.00;;;;;;;;5075050;27;45547;-69
2022/01/19 09:12:50;;;;;;;;;11.50;11.25;;;;;;;;5076327;27;45757;-69
2022/01/19 09:15:17;;;;;;;;;12.50;9.50;;;;;;;;5077537;27;45471;-69
2022/01/19 09:17:42;;;;;;;;;10.50;9.75;;;;;;;;5079697;27;45284;-69
2022/01/19 09:20:09;;;;;;;;;11.75;11.00;;;;;;;;5074214;28;46157;-69
2022/01/19 09:22:34;;;;;;;;;10.00;10.00;;;;;;;;5061546;28;46341;-69
2022/01/19 09:25:00;;;;;;;;;11.50;11.00;;;;;;;;5077023;27;45497;-68
2022/01/19 09:27:25;;;;;;;;;10.25;10.25;;;;;;;;5079294;27;45312;-68
2022/01/19 09:29:50;;;;;;;;;11.00;10.00;;;;;;;;5081059;27;45578;-69
2022/01/19 09:32:15;;;;;;;;;13.00;10.25;;;;;;;;5078765;27;45400;-69
2022/01/19 09:34:43;;;;;;;;;9.25;8.50;;;;;;;;5081382;27;45474;-69
2022/01/19 09:37:09;;;;;;;;;12.00;11.25;;;;;;;;5075935;28;45465;-69
2022/01/19 09:39:34;;;;;;;;;10.50;8.75;;;;;;;;5074193;28;45332;-68
2022/01/19 09:41:59;;;;;;;;;13.00;10.25;;;;;;;;5077305;28;46159;-69
2022/01/19 09:44:25;;;;;;;;;12.75;10.25;;;;;;;;5078362;27;45391;-69
2022/01/19 09:46:51;;;;;;;;;9.00;9.00;;;;;;;;5075107;27;45415;-69
2022/01/19 09:49:17;;;;;;;;;12.75;10.50;;;;;;;;5075215;28;45279;-69
2022/01/19 09:51:44;;;;;;;;;9.75;8.00;;;;;;;;5075616;27;46387;-69
2022/01/19 09:54:12;;;;;;;;;12.50;11.00;;;;;;;;5076161;27;45351;-69
2022/01/19 09:56:37;;;;;;;;;14.25;11.00;;;;;;;;5077727;27;45411;-69
2022/01/19 09:59:03;;;;;;;;;11.25;10.75;;;;;;;;5074227;28;45546;-69
2022/01/19 10:01:28;;;;;;;;;11.50;11.50;;;;;;;;5075166;27;45549;-69
2022/01/19 10:03:53;;;;;;;;;12.75;9.75;;;;;;;;5076640;27;45439;-68
2022/01/19 10:06:22;;;;;;;;;11.25;9.75;;;;;;;;5077779;27;45483;-69
2022/01/19 10:08:49;;;;;;;;;12.25;11.50;;;;;;;;5077594;27;45391;-69
2022/01/19 10:11:27;;;;;;;;;9.75;8.75;;;;;;;;5073850;27;46839;-69
2022/01/19 10:17:01;;;;;;;;;11.25;11.25;;;;;;;;5075608;28;45237;-68
2022/01/19 10:19:26;;;;;;;;;12.25;10.50;;;;;;;;5075109;28;45540;-69
2022/01/19 10:22:14;;;;;;;;;11.50;11.00;;;;;;;;5077123;27;46387;-69
2022/01/19 10:24:48;;;;;;;;;10.75;10.75;;;;;;;;5048601;28;45477;-69
2022/01/19 10:27:20;;;;;;;;;11.75;11.75;;;;;;;;5075138;28;45328;-69
2022/01/19 10:29:46;;;;;;;;;15.25;10.50;;;;;;;;5057491;28;45363;-69
2022/01/19 10:32:12;;;;;;;;;10.75;10.75;;;;;;;;5072715;27;46041;-69
2022/01/19 10:34:37;;;;;;;;;10.00;10.00;;;;;;;;5073644;28;45442;-71
2022/01/19 10:37:04;;;;;;;;;12.50;12.50;;;;;;;;5073572;28;45513;-72
2022/01/19 10:39:41;;;;;;;;;12.50;11.25;;;;;;;;5073698;27;45410;-72
2022/01/19 10:42:06;;;;;;;;;11.25;10.50;;;;;;;;5057596;28;46260;-71
2022/01/19 10:44:36;;;;;;;;;11.25;11.00;;;;;;;;5076091;27;45412;-71
2022/01/19 10:47:01;;;;;;;;;14.50;11.25;;;;;;;;5072877;27;45873;-71
2022/01/19 10:49:27;;;;;;;;;11.75;11.00;;;;;;;;5076821;27;45448;-71
2022/01/19 10:51:56;;;;;;;;;15.25;11.00;;;;;;;;5086259;27;46097;-71
2022/01/19 10:54:25;;;;;;;;;12.50;11.00;;;;;;;;5076892;27;45346;-71
2022/01/19 10:56:54;;;;;;;;;11.75;8.25;;;;;;;;5077084;28;45424;-72
2022/01/19 10:59:24;;;;;;;;;11.75;11.00;;;;;;;;5074023;27;45633;-71
2022/01/19 11:01:53;;;;;;;;;10.25;9.75;;;;;;;;5073846;27;47687;-71
2022/01/19 11:04:27;;;;;;;;;10.50;10.50;;;;;;;;5085813;27;45134;-71
2022/01/19 11:06:53;;;;;;;;;9.50;9.25;;;;;;;;5074702;27;45496;-71
2022/01/19 11:09:23;;;;;;;;;13.00;12.00;;;;;;;;5073789;27;45553;-72
2022/01/19 11:11:49;;;;;;;;;13.50;11.75;;;;;;;;5076163;27;47147;-71
2022/01/19 11:14:15;;;;;;;;;11.25;10.75;;;;;;;;5074108;28;45469;-71
2022/01/19 11:16:42;;;;;;;;;10.75;9.00;;;;;;;;5074225;28;45430;-71
2022/01/19 11:19:07;;;;;;;;;15.25;14.00;;;;;;;;5074074;28;45447;-71
2022/01/19 11:21:36;;;;;;;;;12.75;9.75;;;;;;;;5073984;27;45495;-71
2022/01/19 11:24:09;;;;;;;;;13.25;11.25;;;;;;;;5075696;27;45309;-71
2022/01/19 11:26:35;;;;;;;;;11.00;10.00;;;;;;;;5073657;28;45395;-71
2022/01/19 11:29:20;;;;;;;;;12.00;9.50;;;;;;;;5073290;27;45439;-71
2022/01/19 11:31:46;;;;;;;;;11.75;9.75;;;;;;;;5071651;27;46357;-71
2022/01/19 11:34:12;;;;;;;;;12.00;11.00;;;;;;;;5072504;27;45529;-71
2022/01/19 11:36:42;;;;;;;;;12.00;11.00;;;;;;;;5072793;28;45645;-71
2022/01/19 11:39:07;;;;;;;;;14.75;11.50;;;;;;;;5075099;27;45478;-71
2022/01/19 11:41:35;;;;;;;;;11.25;11.25;;;;;;;;5083222;27;46181;-71
2022/01/19 11:44:01;;;;;;;;;11.75;9.75;;;;;;;;5078932;27;45525;-70
2022/01/19 11:46:26;;;;;;;;;10.75;10.25;;;;;;;;5077849;27;45532;-71
2022/01/19 11:48:51;;;;;;;;;11.25;9.75;;;;;;;;5071634;28;45432;-71
2022/01/19 11:51:31;;;;;;;;;8.75;8.75;;;;;;;;5073459;27;46021;-71
2022/01/19 11:54:07;;;;;;;;;11.00;11.00;;;;;;;;5072235;27;45290;-71
2022/01/19 11:56:33;;;;;;;;;11.75;9.75;;;;;;;;5075180;28;45423;-71
2022/01/19 11:59:08;;;;;;;;;11.75;9.75;;;;;;;;5074657;27;45425;-71
2022/01/19 12:01:34;;;;;;;;;12.25;9.00;;;;;;;;5072085;27;46177;-71
2022/01/19 12:04:17;;;;;;;;;11.75;11.00;;;;;;;;5073642;27;45275;-71
2022/01/19 12:06:43;;;;;;;;;11.00;10.50;;;;;;;;5069765;28;45365;-71
2022/01/19 12:09:11;;;;;;;;;10.25;10.25;;;;;;;;5074425;27;45273;-71
2022/01/19 12:11:38;;;;;;;;;9.00;9.00;;;;;;;;5071856;28;45504;-70
2022/01/19 12:14:16;;;;;;;;;10.25;9.25;;;;;;;;5073443;27;45382;-71
2022/01/19 12:17:04;;;;;;;;;11.50;11.50;;;;;;;;5072031;28;45319;-71
2022/01/19 12:19:40;;;;;;;;;12.00;9.75;;;;;;;;5073295;28;45264;-71
2022/01/19 12:22:24;;;;;;;;;8.50;8.50;;;;;;;;5073875;28;45636;-71
2022/01/19 12:24:57;;;;;;;;;12.25;10.75;;;;;;;;5075441;28;45489;-71
2022/01/19 12:27:25;;;;;;;;;14.25;11.50;;;;;;;;5077415;27;45379;-70
2022/01/19 12:29:52;;;;;;;;;11.75;11.25;;;;;;;;5075308;28;45432;-70
2022/01/19 12:32:17;;;;;;;;;10.50;10.50;;;;;;;;5065854;28;46282;-70
2022/01/19 12:34:44;;;;;;;;;9.00;9.00;;;;;;;;5071850;28;45455;-70
2022/01/19 12:37:10;;;;;;;;;8.00;8.00;;;;;;;;5076366;28;45426;-69
2022/01/19 12:39:37;;;;;;;;;8.75;8.75;;;;;;;;5074866;27;45476;-70
2022/01/19 12:42:04;;;;;;;;;10.75;9.00;;;;;;;;5083795;27;46118;-70
2022/01/19 12:44:35;;;;;;;;;9.00;9.00;;;;;;;;5075565;28;45391;-69
2022/01/19 12:47:04;;;;;;;;;7.00;7.00;;;;;;;;5077078;27;45392;-70
2022/01/19 12:49:30;;;;;;;;;7.75;7.50;;;;;;;;5076062;28;45232;-69
2022/01/19 12:51:56;;;;;;;;;13.50;10.00;;;;;;;;5056202;28;47163;-71
2022/01/19 12:54:26;;;;;;;;;9.00;9.00;;;;;;;;5075465;27;45572;-70
2022/01/19 12:56:58;;;;;;;;;14.50;9.50;;;;;;;;5077172;27;45353;-71
2022/01/19 12:59:24;;;;;;;;;9.50;7.25;;;;;;;;5075286;28;45506;-71
2022/01/19 13:01:49;;;;;;;;;13.00;9.75;;;;;;;;5074653;28;46218;-73
2022/01/19 13:04:29;;;;;;;;;9.50;8.75;;;;;;;;5082268;27;45502;-70
2022/01/19 13:06:56;;;;;;;;;6.00;6.00;;;;;;;;5062081;28;45420;-69
2022/01/19 13:09:34;;;;;;;;;8.25;8.25;;;;;;;;5075862;28;45370;-69
2022/01/19 13:12:10;;;;;;;;;8.75;8.75;;;;;;;;5074246;27;47041;-70
2022/01/19 13:14:35;;;;;;;;;10.75;8.00;;;;;;;;5077607;27;45398;-70
2022/01/19 13:17:00;;;;;;;;;10.00;8.25;;;;;;;;5076641;27;45433;-68
2022/01/19 13:19:29;;;;;;;;;10.50;10.50;;;;;;;;5077075;27;45438;-69
2022/01/19 13:22:02;;;;;;;;;11.75;9.00;;;;;;;;5084874;27;46301;-69
2022/01/19 13:24:30;;;;;;;;;9.00;9.00;;;;;;;;5077698;27;45425;-69
2022/01/19 13:26:59;;;;;;;;;9.75;9.00;;;;;;;;5091192;27;45395;-69
2022/01/19 13:29:38;;;;;;;;;11.50;9.75;;;;;;;;5083844;27;47500;-70
2022/01/19 13:32:06;;;;;;;;;7.50;7.50;;;;;;;;5078202;27;46253;-70
2022/01/19 13:34:34;;;;;;;;;9.00;8.00;;;;;;;;5078087;27;45462;-70
2022/01/19 13:37:00;;;;;;;;;2.75;2.75;;;;;;;;5075894;28;45430;-70
2022/01/19 13:39:28;;;;;;;;;9.75;7.75;;;;;;;;5075499;27;45687;-70
2022/01/19 13:41:54;;;;;;;;;7.50;7.50;;;;;;;;5077808;27;45340;-70
2022/01/19 13:44:25;;;;;;;;;8.50;8.00;;;;;;;;5074268;27;45496;-70
2022/01/19 13:46:50;;;;;;;;;9.00;8.00;;;;;;;;5077442;27;45659;-70
2022/01/19 13:49:15;;;;;;;;;6.50;6.50;;;;;;;;5077320;28;45571;-70
2022/01/19 13:51:41;;;;;;;;;8.00;6.50;;;;;;;;5077044;27;46713;-70
2022/01/19 13:54:07;;;;;;;;;9.50;8.00;;;;;;;;5084698;27;45304;-70
2022/01/19 13:56:35;;;;;;;;;8.25;8.00;;;;;;;;5077140;27;45550;-70
2022/01/19 13:59:08;;;;;;;;;7.50;7.50;;;;;;;;5079423;27;45496;-70
2022/01/19 14:01:58;;;;;;;;;6.25;6.00;;;;;;;;5074956;28;45426;-70
2022/01/19 14:04:25;;;;;;;;;8.75;7.25;;;;;;;;5075085;28;45485;-70
2022/01/19 14:06:50;;;;;;;;;7.50;6.75;;;;;;;;5083098;27;45512;-70
2022/01/19 14:09:20;;;;;;;;;9.25;9.00;;;;;;;;5077431;27;45267;-70
2022/01/19 14:11:47;;;;;;;;;8.50;7.50;;;;;;;;5077366;28;47246;-69
2022/01/19 14:14:26;;;;;;;;;9.25;8.00;;;;;;;;5078148;27;45584;-69
2022/01/19 14:16:53;;;;;;;;;7.00;7.00;;;;;;;;5078132;27;45435;-70
2022/01/19 14:19:25;;;;;;;;;7.25;6.00;;;;;;;;5075653;27;45476;-69
2022/01/19 14:21:53;;;;;;;;;7.00;7.00;;;;;;;;5074773;28;46518;-69
2022/01/19 14:24:18;;;;;;;;;8.00;7.50;;;;;;;;5074620;28;45566;-69
2022/01/19 14:26:54;;;;;;;;;7.25;7.00;;;;;;;;5076833;27;45366;-69
2022/01/19 14:29:19;;;;;;;;;8.00;7.25;;;;;;;;5075076;28;45509;-69
2022/01/19 14:31:47;;;;;;;;;12.25;8.00;;;;;;;;5076041;28;45412;-69
2022/01/19 14:34:12;;;;;;;;;11.00;7.00;;;;;;;;5073753;28;45821;-69
2022/01/19 14:36:38;;;;;;;;;7.75;5.75;;;;;;;;5057760;28;45413;-70
2022/01/19 14:39:03;;;;;;;;;7.50;7.50;;;;;;;;5085971;27;45464;-71
2022/01/19 14:41:31;;;;;;;;;8.75;7.50;;;;;;;;5075365;28;46104;-69
2022/01/19 14:44:20;;;;;;;;;10.25;7.75;;;;;;;;5074917;28;45628;-69
2022/01/19 14:47:04;;;;;;;;;8.75;8.25;;;;;;;;5074984;28;45256;-69
2022/01/19 14:49:31;;;;;;;;;8.00;7.00;;;;;;;;5073473;28;45453;-70
2022/01/19 14:51:56;;;;;;;;;8.00;7.00;;;;;;;;5072549;28;45437;-70
2022/01/19 14:54:23;;;;;;;;;8.50;7.00;;;;;;;;5074062;27;45369;-70
2022/01/19 14:56:48;;;;;;;;;10.50;8.75;;;;;;;;5059015;28;45478;-69
2022/01/19 14:59:17;;;;;;;;;8.25;7.50;;;;;;;;5082219;27;45509;-70
2022/01/19 15:01:45;;;;;;;;;10.25;8.00;;;;;;;;5078827;27;46184;-69
2022/01/19 15:04:11;;;;;;;;;5.50;5.50;;;;;;;;5072782;28;45561;-71
2022/01/19 15:06:36;;;;;;;;;9.00;7.00;;;;;;;;5084084;27;45922;-70
2022/01/19 15:09:03;;;;;;;;;7.50;7.50;;;;;;;;5076380;27;45400;-70
2022/01/19 15:11:30;;;;;;;;;10.50;7.00;;;;;;;;5073192;27;46213;-71
2022/01/19 15:13:55;;;;;;;;;8.00;8.00;;;;;;;;5076238;27;45261;-70
2022/01/19 15:16:20;;;;;;;;;7.25;7.00;;;;;;;;5077114;27;45478;-71
2022/01/19 15:18:46;;;;;;;;;4.00;4.00;;;;;;;;5057120;28;45380;-70
2022/01/19 15:21:12;;;;;;;;;7.50;6.25;;;;;;;;5080281;27;46178;-70
2022/01/19 15:23:37;;;;;;;;;7.00;5.75;;;;;;;;5074059;28;45474;-69
2022/01/19 15:26:03;;;;;;;;;7.75;6.75;;;;;;;;5056291;28;45576;-71
2022/01/19 15:28:28;;;;;;;;;6.50;6.00;;;;;;;;5072906;28;45909;-70
2022/01/19 15:30:54;;;;;;;;;7.50;7.50;;;;;;;;5073707;28;46326;-71
2022/01/19 15:33:20;;;;;;;;;6.00;6.00;;;;;;;;5073714;27;46067;-71
2022/01/19 15:35:47;;;;;;;;;7.75;7.75;;;;;;;;5076045;28;45270;-71
2022/01/19 15:38:12;;;;;;;;;8.00;7.00;;;;;;;;5076098;27;45481;-71
2022/01/19 15:40:39;;;;;;;;;9.00;6.75;;;;;;;;5074861;27;45462;-71
2022/01/19 15:43:05;;;;;;;;;5.00;5.00;;;;;;;;5074116;27;45499;-69
2022/01/19 15:45:31;;;;;;;;;7.75;7.75;;;;;;;;5073342;28;45427;-71
2022/01/19 15:47:58;;;;;;;;;8.00;5.25;;;;;;;;5076975;27;45450;-69
2022/01/19 15:50:23;;;;;;;;;7.25;6.50;;;;;;;;5073037;27;47227;-71